createdAt,value
2016-07-13T00:00:18.424Z,0
2016-07-13T00:01:18.406Z,0
2016-07-13T00:02:18.379Z,0
2016-07-13T00:03:18.375Z,0
2016-07-13T00:04:18.342Z,0
2016-07-13T00:05:18.321Z,0
2016-07-13T00:06:18.304Z,0
2016-07-13T00:07:18.276Z,0
2016-07-13T00:08:18.262Z,0
2016-07-13T00:09:18.239Z,0
2016-07-13T00:10:18.221Z,0
2016-07-13T00:11:18.199Z,0
2016-07-13T00:12:18.183Z,0
2016-07-13T00:13:18.161Z,0
2016-07-13T00:14:18.148Z,0
2016-07-13T00:15:18.115Z,0
2016-07-13T00:16:18.098Z,0
2016-07-13T00:17:18.074Z,0
2016-07-13T00:18:18.049Z,0
2016-07-13T00:19:18.032Z,0
2016-07-13T00:20:18.012Z,0
2016-07-13T00:21:17.990Z,0
2016-07-13T00:22:17.971Z,0
2016-07-13T00:23:17.950Z,0
2016-07-13T00:24:17.929Z,0
2016-07-13T00:25:17.930Z,0
2016-07-13T00:26:17.881Z,0
2016-07-13T00:27:17.870Z,0
2016-07-13T00:28:17.852Z,0
2016-07-13T00:29:17.821Z,0
2016-07-13T00:30:17.804Z,0
2016-07-13T00:31:17.799Z,0
2016-07-13T00:32:17.761Z,0
2016-07-13T00:33:17.739Z,0
2016-07-13T00:34:17.722Z,0
2016-07-13T00:35:17.696Z,0
2016-07-13T00:36:17.677Z,0
2016-07-13T00:37:17.660Z,0
2016-07-13T00:38:17.634Z,0
2016-07-13T00:39:17.613Z,0
2016-07-13T00:40:17.599Z,0
2016-07-13T00:41:17.578Z,0
2016-07-13T00:42:18.245Z,0
2016-07-13T00:43:17.534Z,0
2016-07-13T00:44:17.509Z,0
2016-07-13T00:45:17.487Z,0
2016-07-13T00:46:17.467Z,0
2016-07-13T00:47:17.450Z,0
2016-07-13T00:48:17.424Z,0
2016-07-13T00:49:17.410Z,0
2016-07-13T00:50:17.384Z,0
2016-07-13T00:51:17.361Z,0
2016-07-13T00:52:17.346Z,0
2016-07-13T00:53:17.322Z,0
2016-07-13T00:54:17.298Z,0
2016-07-13T00:55:17.278Z,0
2016-07-13T00:56:17.257Z,0
2016-07-13T00:57:17.234Z,0
2016-07-13T00:58:17.219Z,0
2016-07-13T00:59:17.198Z,0
2016-07-13T01:00:17.178Z,0
2016-07-13T01:01:17.153Z,0
2016-07-13T01:02:17.141Z,0
2016-07-13T01:03:17.112Z,0
2016-07-13T01:04:17.087Z,0
2016-07-13T01:05:17.071Z,0
2016-07-13T01:06:17.048Z,0
2016-07-13T01:07:17.021Z,0
2016-07-13T01:08:17.006Z,0
2016-07-13T01:09:16.991Z,0
2016-07-13T01:10:16.959Z,0
2016-07-13T01:11:16.943Z,0
2016-07-13T01:12:16.920Z,0
2016-07-13T01:13:16.896Z,0
2016-07-13T01:14:16.881Z,0
2016-07-13T01:15:16.858Z,0
2016-07-13T01:16:16.836Z,0
2016-07-13T01:17:16.807Z,0
2016-07-13T01:18:16.791Z,0
2016-07-13T01:19:16.771Z,0
2016-07-13T01:20:16.749Z,0
2016-07-13T01:21:16.728Z,0
2016-07-13T01:22:16.706Z,0
2016-07-13T01:23:16.685Z,0
2016-07-13T01:24:16.660Z,0
2016-07-13T01:25:16.642Z,0
2016-07-13T01:26:16.635Z,0
2016-07-13T01:27:16.597Z,0
2016-07-13T01:28:16.580Z,0
2016-07-13T01:29:16.556Z,0
2016-07-13T01:30:16.537Z,0
2016-07-13T01:31:16.515Z,0
2016-07-13T01:32:16.488Z,0
2016-07-13T01:33:17.175Z,0
2016-07-13T01:34:16.452Z,0
2016-07-13T01:35:16.431Z,0
2016-07-13T01:36:16.408Z,0
2016-07-13T01:37:16.381Z,0
2016-07-13T01:38:16.360Z,0
2016-07-13T01:39:16.340Z,0
2016-07-13T01:40:16.332Z,0
2016-07-13T01:41:16.303Z,0
2016-07-13T01:42:16.280Z,0
2016-07-13T01:43:16.260Z,0
2016-07-13T01:44:16.236Z,0
2016-07-13T01:45:16.216Z,0
2016-07-13T01:46:16.190Z,0
2016-07-13T01:47:16.178Z,0
2016-07-13T01:48:16.145Z,0
2016-07-13T01:49:16.128Z,0
2016-07-13T01:50:16.117Z,0
2016-07-13T01:51:16.083Z,0
2016-07-13T01:52:16.068Z,0
2016-07-13T01:53:16.043Z,0
2016-07-13T01:54:16.018Z,0
2016-07-13T01:55:15.994Z,0
2016-07-13T01:56:15.977Z,0
2016-07-13T01:57:15.962Z,0
2016-07-13T01:58:15.929Z,0
2016-07-13T01:59:15.912Z,0
2016-07-13T02:00:15.943Z,0
2016-07-13T02:01:15.921Z,0
2016-07-13T02:02:16.214Z,0
2016-07-13T02:03:15.826Z,0
2016-07-13T02:04:15.805Z,0
2016-07-13T02:05:15.781Z,0
2016-07-13T02:06:15.761Z,0
2016-07-13T02:07:15.740Z,0
2016-07-13T02:08:15.718Z,0
2016-07-13T02:09:15.703Z,0
2016-07-13T02:10:15.677Z,0
2016-07-13T02:11:15.652Z,0
2016-07-13T02:12:15.626Z,0
2016-07-13T02:13:15.607Z,0
2016-07-13T02:14:15.586Z,0
2016-07-13T02:15:15.574Z,0
2016-07-13T02:16:15.548Z,0
2016-07-13T02:17:15.527Z,0
2016-07-13T02:18:15.550Z,0
2016-07-13T02:19:15.483Z,0
2016-07-13T02:20:15.453Z,0
2016-07-13T02:21:15.435Z,0
2016-07-13T02:22:15.412Z,0
2016-07-13T02:23:15.392Z,0
2016-07-13T02:24:15.372Z,0
2016-07-13T02:25:15.357Z,0
2016-07-13T02:26:16.016Z,0
2016-07-13T02:27:15.300Z,0
2016-07-13T02:28:15.290Z,0
2016-07-13T02:29:15.957Z,0
2016-07-13T02:30:15.238Z,0
2016-07-13T02:31:15.217Z,0
2016-07-13T02:32:15.203Z,0
2016-07-13T02:33:15.176Z,0
2016-07-13T02:34:15.151Z,0
2016-07-13T02:35:15.129Z,0
2016-07-13T02:36:15.106Z,0
2016-07-13T02:37:15.086Z,0
2016-07-13T02:38:15.064Z,0
2016-07-13T02:39:15.038Z,0
2016-07-13T02:40:15.020Z,0
2016-07-13T02:41:15.001Z,0
2016-07-13T02:42:14.973Z,0
2016-07-13T02:43:14.966Z,0
2016-07-13T02:44:14.933Z,0
2016-07-13T02:45:14.907Z,0
2016-07-13T02:46:14.886Z,0
2016-07-13T02:47:14.872Z,0
2016-07-13T02:48:14.848Z,0
2016-07-13T02:49:14.823Z,0
2016-07-13T02:50:14.807Z,0
2016-07-13T02:51:14.777Z,0
2016-07-13T02:52:14.753Z,0
2016-07-13T02:53:14.747Z,0
2016-07-13T02:54:14.720Z,0
2016-07-13T02:55:14.686Z,0
2016-07-13T02:56:14.669Z,0
2016-07-13T02:57:14.655Z,0
2016-07-13T02:58:14.626Z,0
2016-07-13T02:59:14.608Z,0
2016-07-13T03:00:14.588Z,0
2016-07-13T03:01:14.558Z,0
2016-07-13T03:02:14.538Z,0
2016-07-13T03:03:14.515Z,0
2016-07-13T03:04:14.496Z,0
2016-07-13T03:05:14.469Z,0
2016-07-13T03:06:14.460Z,0
2016-07-13T03:07:14.431Z,0
2016-07-13T03:08:14.405Z,0
2016-07-13T03:09:14.406Z,0
2016-07-13T03:10:14.367Z,0
2016-07-13T03:11:14.341Z,5
2016-07-13T03:12:15.016Z,5
2016-07-13T03:13:14.295Z,5
2016-07-13T03:14:14.276Z,5
2016-07-13T03:15:14.255Z,5
2016-07-13T03:16:14.233Z,5
2016-07-13T03:17:14.209Z,5
2016-07-13T03:18:14.239Z,10
2016-07-13T03:19:14.164Z,10
2016-07-13T03:20:14.146Z,10
2016-07-13T03:21:14.125Z,10
2016-07-13T03:22:14.095Z,15
2016-07-13T03:23:14.082Z,15
2016-07-13T03:24:14.059Z,15
2016-07-13T03:25:14.036Z,15
2016-07-13T03:26:14.014Z,20
2016-07-13T03:27:13.994Z,20
2016-07-13T03:28:13.964Z,20
2016-07-13T03:29:13.947Z,20
2016-07-13T03:30:13.928Z,25
2016-07-13T03:31:13.898Z,25
2016-07-13T03:32:13.875Z,25
2016-07-13T03:33:13.877Z,30
2016-07-13T03:34:14.530Z,30
2016-07-13T03:35:13.812Z,30
2016-07-13T03:36:13.792Z,35
2016-07-13T03:37:13.776Z,35
2016-07-13T03:38:13.743Z,40
2016-07-13T03:39:13.737Z,40
2016-07-13T03:40:13.708Z,45
2016-07-13T03:41:13.693Z,45
2016-07-13T03:42:13.661Z,45
2016-07-13T03:43:13.645Z,50
2016-07-13T03:44:13.619Z,50
2016-07-13T03:45:13.587Z,55
2016-07-13T03:46:13.573Z,55
2016-07-13T03:47:13.550Z,60
2016-07-13T03:48:13.526Z,65
2016-07-13T03:49:13.504Z,65
2016-07-13T03:50:13.490Z,70
2016-07-13T03:51:13.464Z,70
2016-07-13T03:52:13.438Z,75
2016-07-13T03:53:13.420Z,75
2016-07-13T03:54:13.396Z,80
2016-07-13T03:55:13.373Z,80
2016-07-13T03:56:13.358Z,85
2016-07-13T03:57:13.334Z,90
2016-07-13T03:58:13.309Z,90
2016-07-13T03:59:13.289Z,95
2016-07-13T04:00:13.265Z,100
2016-07-13T04:01:13.240Z,100
2016-07-13T04:02:13.234Z,105
2016-07-13T04:03:13.895Z,110
2016-07-13T04:04:13.171Z,115
2016-07-13T04:05:13.159Z,120
2016-07-13T04:06:13.133Z,120
2016-07-13T04:07:13.115Z,125
2016-07-13T04:08:13.106Z,130
2016-07-13T04:09:13.762Z,135
2016-07-13T04:10:13.045Z,145
2016-07-13T04:11:13.033Z,150
2016-07-13T04:12:13.008Z,160
2016-07-13T04:13:12.977Z,165
2016-07-13T04:14:12.959Z,170
2016-07-13T04:15:12.938Z,175
2016-07-13T04:16:12.918Z,180
2016-07-13T04:17:12.896Z,185
2016-07-13T04:18:12.874Z,185
2016-07-13T04:19:12.859Z,185
2016-07-13T04:20:12.829Z,190
2016-07-13T04:21:12.816Z,195
2016-07-13T04:22:12.789Z,200
2016-07-13T04:23:12.761Z,200
2016-07-13T04:24:12.745Z,205
2016-07-13T04:25:12.727Z,215
2016-07-13T04:26:12.698Z,215
2016-07-13T04:27:12.679Z,220
2016-07-13T04:28:12.661Z,230
2016-07-13T04:29:12.635Z,235
2016-07-13T04:30:12.617Z,240
2016-07-13T04:31:12.596Z,250
2016-07-13T04:32:12.574Z,255
2016-07-13T04:33:12.546Z,260
2016-07-13T04:34:12.529Z,270
2016-07-13T04:35:12.511Z,275
2016-07-13T04:36:12.485Z,280
2016-07-13T04:37:12.467Z,285
2016-07-13T04:38:12.449Z,290
2016-07-13T04:39:12.426Z,295
2016-07-13T04:40:12.399Z,300
2016-07-13T04:41:12.385Z,305
2016-07-13T04:42:12.359Z,320
2016-07-13T04:43:12.339Z,330
2016-07-13T04:44:12.318Z,330
2016-07-13T04:45:12.307Z,335
2016-07-13T04:46:12.278Z,340
2016-07-13T04:47:12.260Z,340
2016-07-13T04:48:12.241Z,340
2016-07-13T04:49:12.211Z,335
2016-07-13T04:50:12.892Z,325
2016-07-13T04:51:12.176Z,310
2016-07-13T04:52:12.148Z,305
2016-07-13T04:53:12.133Z,305
2016-07-13T04:54:12.116Z,310
2016-07-13T04:55:12.092Z,315
2016-07-13T04:56:12.072Z,325
2016-07-13T04:57:12.051Z,325
2016-07-13T04:58:12.027Z,325
2016-07-13T04:59:12.008Z,315
2016-07-13T05:00:11.990Z,315
2016-07-13T05:01:11.968Z,310
2016-07-13T05:02:11.949Z,305
2016-07-13T05:03:11.925Z,310
2016-07-13T05:04:11.907Z,315
2016-07-13T05:05:11.881Z,315
2016-07-13T05:06:11.864Z,315
2016-07-13T05:07:11.842Z,310
2016-07-13T05:08:11.820Z,305
2016-07-13T05:09:11.808Z,300
2016-07-13T05:10:11.785Z,300
2016-07-13T05:11:11.764Z,300
2016-07-13T05:12:11.744Z,300
2016-07-13T05:13:11.725Z,305
2016-07-13T05:14:11.698Z,320
2016-07-13T05:15:11.685Z,295
2016-07-13T05:16:11.662Z,295
2016-07-13T05:17:11.637Z,290
2016-07-13T05:18:11.620Z,285
2016-07-13T05:19:11.604Z,290
2016-07-13T05:20:11.648Z,295
2016-07-13T05:21:11.560Z,315
2016-07-13T05:22:11.547Z,325
2016-07-13T05:23:11.521Z,360
2016-07-13T05:24:11.495Z,360
2016-07-13T05:25:11.488Z,350
2016-07-13T05:26:11.459Z,355
2016-07-13T05:27:11.443Z,355
2016-07-13T05:28:13.884Z,340
2016-07-13T05:29:11.400Z,350
2016-07-13T05:30:11.373Z,370
2016-07-13T05:31:11.370Z,385
2016-07-13T05:32:11.337Z,385
2016-07-13T05:33:11.322Z,395
2016-07-13T05:34:11.294Z,405
2016-07-13T05:35:11.270Z,420
2016-07-13T05:36:11.254Z,455
2016-07-13T05:37:11.234Z,465
2016-07-13T05:38:11.210Z,470
2016-07-13T05:39:11.195Z,475
2016-07-13T05:40:11.173Z,475
2016-07-13T05:41:11.150Z,475
2016-07-13T05:42:11.138Z,470
2016-07-13T05:43:11.117Z,470
2016-07-13T05:44:11.092Z,470
2016-07-13T05:45:11.072Z,470
2016-07-13T05:46:11.057Z,470
2016-07-13T05:47:11.036Z,465
2016-07-13T05:48:11.021Z,455
2016-07-13T05:49:11.002Z,465
2016-07-13T05:50:10.983Z,460
2016-07-13T05:51:10.965Z,465
2016-07-13T05:52:10.942Z,470
2016-07-13T05:53:10.923Z,475
2016-07-13T05:54:10.906Z,485
2016-07-13T05:55:10.896Z,485
2016-07-13T05:56:10.865Z,480
2016-07-13T05:57:11.546Z,480
2016-07-13T05:58:10.840Z,480
2016-07-13T05:59:10.812Z,475
2016-07-13T06:00:10.809Z,480
2016-07-13T06:01:10.775Z,480
2016-07-13T06:02:10.756Z,480
2016-07-13T06:03:10.742Z,475
2016-07-13T06:04:10.727Z,480
2016-07-13T06:05:10.703Z,480
2016-07-13T06:06:10.687Z,490
2016-07-13T06:07:10.672Z,495
2016-07-13T06:08:10.647Z,500
2016-07-13T06:09:10.654Z,515
2016-07-13T06:10:10.622Z,535
2016-07-13T06:11:10.607Z,530
2016-07-13T06:12:10.577Z,525
2016-07-13T06:13:10.568Z,525
2016-07-13T06:14:10.555Z,530
2016-07-13T06:15:10.532Z,540
2016-07-13T06:16:10.520Z,540
2016-07-13T06:17:10.503Z,545
2016-07-13T06:18:10.487Z,555
2016-07-13T06:19:10.465Z,565
2016-07-13T06:20:10.451Z,565
2016-07-13T06:21:10.440Z,645
2016-07-13T06:22:10.411Z,885
2016-07-13T06:23:10.404Z,1100
2016-07-13T06:24:10.383Z,1230
2016-07-13T06:25:10.363Z,1235
2016-07-13T06:26:10.353Z,1225
2016-07-13T06:27:10.337Z,1250
2016-07-13T06:28:10.321Z,1255
2016-07-13T06:29:10.304Z,1230
2016-07-13T06:30:10.290Z,1230
2016-07-13T06:31:10.267Z,1300
2016-07-13T06:32:10.257Z,1330
2016-07-13T06:33:10.240Z,1355
2016-07-13T06:34:10.922Z,1360
2016-07-13T06:35:10.207Z,1360
2016-07-13T06:36:10.197Z,1395
2016-07-13T06:37:10.178Z,1445
2016-07-13T06:38:10.161Z,1550
2016-07-13T06:39:10.159Z,1600
2016-07-13T06:40:10.843Z,1610
2016-07-13T06:41:10.120Z,1575
2016-07-13T06:42:10.111Z,1510
2016-07-13T06:43:10.109Z,1445
2016-07-13T06:44:10.075Z,1445
2016-07-13T06:45:10.068Z,1575
2016-07-13T06:46:10.050Z,1595
2016-07-13T06:47:10.039Z,1550
2016-07-13T06:48:10.027Z,1480
2016-07-13T06:49:10.710Z,1500
2016-07-13T06:50:10.002Z,1490
2016-07-13T06:51:09.985Z,1605
2016-07-13T06:52:09.976Z,1680
2016-07-13T06:53:09.963Z,1655
2016-07-13T06:54:09.955Z,1490
2016-07-13T06:55:09.937Z,1250
2016-07-13T06:56:09.920Z,1165
2016-07-13T06:57:09.910Z,815
2016-07-13T06:58:09.897Z,1455
2016-07-13T06:59:09.884Z,965
2016-07-13T07:00:09.878Z,985
2016-07-13T07:01:09.862Z,1565
2016-07-13T07:02:09.846Z,1565
2016-07-13T07:03:09.831Z,1430
2016-07-13T07:04:09.822Z,1210
2016-07-13T07:05:09.818Z,805
2016-07-13T07:06:09.801Z,915
2016-07-13T07:07:09.787Z,915
2016-07-13T07:08:09.786Z,745
2016-07-13T07:09:09.761Z,1020
2016-07-13T07:10:09.756Z,795
2016-07-13T07:11:09.743Z,1705
2016-07-13T07:12:09.729Z,1305
2016-07-13T07:13:09.726Z,2465
2016-07-13T07:14:09.704Z,1250
2016-07-13T07:15:09.693Z,855
2016-07-13T07:16:11.219Z,1055
2016-07-13T07:17:09.675Z,1625
2016-07-13T07:18:09.661Z,1625
2016-07-13T07:19:09.652Z,2035
2016-07-13T07:20:09.635Z,1285
2016-07-13T07:21:09.623Z,1490
2016-07-13T07:22:09.613Z,575
2016-07-13T07:23:09.615Z,560
2016-07-13T07:24:09.595Z,695
2016-07-13T07:25:09.579Z,1935
2016-07-13T07:26:09.567Z,1860
2016-07-13T07:27:09.554Z,1825
2016-07-13T07:28:09.542Z,1870
2016-07-13T07:29:09.530Z,1880
2016-07-13T07:30:09.511Z,1920
2016-07-13T07:31:09.506Z,1925
2016-07-13T07:32:09.492Z,1255
2016-07-13T07:33:09.486Z,845
2016-07-13T07:34:09.464Z,2015
2016-07-13T07:35:09.454Z,1315
2016-07-13T07:36:09.445Z,1665
2016-07-13T07:37:09.431Z,1945
2016-07-13T07:38:09.417Z,1905
2016-07-13T07:39:09.407Z,1950
2016-07-13T07:40:09.389Z,1915
2016-07-13T07:41:09.384Z,1925
2016-07-13T07:42:09.376Z,2020
2016-07-13T07:43:09.355Z,2015
2016-07-13T07:44:09.340Z,2110
2016-07-13T07:45:09.332Z,2150
2016-07-13T07:46:09.323Z,2170
2016-07-13T07:47:09.310Z,2260
2016-07-13T07:48:09.309Z,2255
2016-07-13T07:49:09.291Z,2450
2016-07-13T07:50:09.277Z,2440
2016-07-13T07:51:09.281Z,2405
2016-07-13T07:52:09.256Z,2555
2016-07-13T07:53:09.256Z,2585
2016-07-13T07:54:09.233Z,2595
2016-07-13T07:55:09.228Z,2505
2016-07-13T07:56:09.214Z,2480
2016-07-13T07:57:09.220Z,2480
2016-07-13T07:58:09.200Z,1040
2016-07-13T07:59:09.187Z,2415
2016-07-13T08:00:09.180Z,2395
2016-07-13T08:01:09.171Z,1425
2016-07-13T08:02:09.158Z,915
2016-07-13T08:03:09.148Z,690
2016-07-13T08:04:10.653Z,625
2016-07-13T08:05:09.205Z,685
2016-07-13T08:06:09.123Z,825
2016-07-13T08:07:09.120Z,985
2016-07-13T08:08:09.813Z,1205
2016-07-13T08:09:09.087Z,1175
2016-07-13T08:10:09.082Z,1215
2016-07-13T08:11:09.070Z,1255
2016-07-13T08:12:09.054Z,1495
2016-07-13T08:13:09.054Z,1430
2016-07-13T08:14:09.042Z,1705
2016-07-13T08:15:09.025Z,1960
2016-07-13T08:16:09.010Z,2400
2016-07-13T08:17:09.003Z,2170
2016-07-13T08:18:08.987Z,2660
2016-07-13T08:19:08.978Z,2680
2016-07-13T08:20:08.971Z,2515
2016-07-13T08:21:08.960Z,2400
2016-07-13T08:22:08.942Z,2420
2016-07-13T08:23:08.937Z,2305
2016-07-13T08:24:08.921Z,1630
2016-07-13T08:25:08.913Z,1460
2016-07-13T08:26:08.908Z,1650
2016-07-13T08:27:08.887Z,1955
2016-07-13T08:28:08.885Z,2515
2016-07-13T08:29:08.875Z,2270
2016-07-13T08:30:08.863Z,1990
2016-07-13T08:31:08.845Z,1505
2016-07-13T08:32:08.843Z,1595
2016-07-13T08:33:08.829Z,1460
2016-07-13T08:34:08.816Z,1295
2016-07-13T08:35:08.814Z,1325
2016-07-13T08:36:08.803Z,1490
2016-07-13T08:37:09.481Z,1520
2016-07-13T08:38:08.777Z,1350
2016-07-13T08:39:08.782Z,1185
2016-07-13T08:40:08.760Z,1330
2016-07-13T08:41:08.746Z,2355
2016-07-13T08:42:08.738Z,1450
2016-07-13T08:43:08.739Z,1435
2016-07-13T08:44:08.712Z,1400
2016-07-13T08:45:08.707Z,1515
2016-07-13T08:46:08.803Z,1765
2016-07-13T08:47:08.683Z,1520
2016-07-13T08:48:08.674Z,1585
2016-07-13T08:49:08.661Z,1620
2016-07-13T08:50:08.647Z,1595
2016-07-13T08:51:08.640Z,1570
2016-07-13T08:52:08.635Z,1565
2016-07-13T08:53:08.615Z,1575
2016-07-13T08:54:08.617Z,1560
2016-07-13T08:55:08.593Z,1585
2016-07-13T08:56:08.586Z,1570
2016-07-13T08:57:09.267Z,1545
2016-07-13T08:58:08.562Z,1525
2016-07-13T08:59:08.550Z,1535
2016-07-13T09:00:09.397Z,1565
2016-07-13T09:01:08.522Z,1600
2016-07-13T09:02:08.527Z,1625
2016-07-13T09:03:08.520Z,1630
2016-07-13T09:04:08.486Z,1590
2016-07-13T09:05:08.478Z,1485
2016-07-13T09:06:08.472Z,1400
2016-07-13T09:07:08.453Z,1360
2016-07-13T09:08:08.446Z,1425
2016-07-13T09:09:08.439Z,1765
2016-07-13T09:10:08.414Z,2165
2016-07-13T09:11:08.417Z,1635
2016-07-13T09:12:08.392Z,1490
2016-07-13T09:13:08.396Z,1360
2016-07-13T09:14:08.378Z,1260
2016-07-13T09:15:08.357Z,1195
2016-07-13T09:16:08.344Z,1190
2016-07-13T09:17:08.341Z,1240
2016-07-13T09:18:08.335Z,1295
2016-07-13T09:19:08.316Z,1340
2016-07-13T09:20:09.001Z,1335
2016-07-13T09:21:08.292Z,1290
2016-07-13T09:22:08.273Z,1185
2016-07-13T09:23:08.269Z,1115
2016-07-13T09:24:08.258Z,1075
2016-07-13T09:25:08.239Z,1050
2016-07-13T09:26:08.237Z,1085
2016-07-13T09:27:08.219Z,1160
2016-07-13T09:28:08.203Z,1215
2016-07-13T09:29:08.195Z,1230
2016-07-13T09:30:08.182Z,1265
2016-07-13T09:31:08.176Z,1255
2016-07-13T09:32:08.159Z,1230
2016-07-13T09:33:08.144Z,1210
2016-07-13T09:34:08.128Z,1200
2016-07-13T09:35:08.151Z,1200
2016-07-13T09:36:08.102Z,1215
2016-07-13T09:37:08.089Z,1230
2016-07-13T09:38:08.077Z,1250
2016-07-13T09:39:08.065Z,1270
2016-07-13T09:40:08.051Z,1300
2016-07-13T09:41:08.037Z,1325
2016-07-13T09:42:08.024Z,1355
2016-07-13T09:43:08.012Z,1380
2016-07-13T09:44:07.997Z,1395
2016-07-13T09:45:07.983Z,1410
2016-07-13T09:46:08.664Z,1430
2016-07-13T09:47:07.959Z,1435
2016-07-13T09:48:07.944Z,1460
2016-07-13T09:49:07.937Z,1465
2016-07-13T09:50:07.923Z,1475
2016-07-13T09:51:07.910Z,1490
2016-07-13T09:52:07.904Z,1520
2016-07-13T09:53:08.632Z,1555
2016-07-13T09:54:07.875Z,1545
2016-07-13T09:55:07.858Z,1505
2016-07-13T09:56:07.846Z,1455
2016-07-13T09:57:08.529Z,1455
2016-07-13T09:58:07.826Z,1480
2016-07-13T09:59:07.806Z,1520
2016-07-13T10:00:07.799Z,1560
2016-07-13T10:01:07.783Z,1605
2016-07-13T10:02:07.770Z,1635
2016-07-13T10:03:07.760Z,1665
2016-07-13T10:04:07.775Z,1775
2016-07-13T10:05:07.733Z,1955
2016-07-13T10:06:07.722Z,1800
2016-07-13T10:07:07.712Z,1835
2016-07-13T10:08:07.794Z,1715
2016-07-13T10:09:07.683Z,1745
2016-07-13T10:10:07.676Z,1815
2016-07-13T10:11:07.668Z,1720
2016-07-13T10:12:07.650Z,1620
2016-07-13T10:13:07.642Z,1515
2016-07-13T10:14:07.632Z,1470
2016-07-13T10:15:08.339Z,1465
2016-07-13T10:16:07.605Z,1450
2016-07-13T10:17:07.605Z,1420
2016-07-13T10:18:07.581Z,1370
2016-07-13T10:19:07.566Z,1305
2016-07-13T10:20:07.616Z,1235
2016-07-13T10:21:07.545Z,1185
2016-07-13T10:22:07.531Z,1155
2016-07-13T10:23:07.523Z,1155
2016-07-13T10:24:07.510Z,1160
2016-07-13T10:25:08.188Z,1170
2016-07-13T10:26:07.483Z,1185
2016-07-13T10:27:07.475Z,1190
2016-07-13T10:28:07.455Z,1180
2016-07-13T10:29:07.447Z,1180
2016-07-13T10:30:07.446Z,1170
2016-07-13T10:31:07.428Z,1195
2016-07-13T10:32:07.418Z,1280
2016-07-13T10:33:07.398Z,1400
2016-07-13T10:34:07.382Z,1665
2016-07-13T10:35:07.372Z,1725
2016-07-13T10:36:07.358Z,1995
2016-07-13T10:37:07.342Z,2025
2016-07-13T10:38:07.338Z,2250
2016-07-13T10:39:07.331Z,2255
2016-07-13T10:40:07.305Z,1910
2016-07-13T10:41:07.309Z,1745
2016-07-13T10:42:07.284Z,1690
2016-07-13T10:43:07.275Z,1830
2016-07-13T10:44:07.264Z,1725
2016-07-13T10:45:07.249Z,1760
2016-07-13T10:46:07.235Z,1935
2016-07-13T10:47:07.225Z,2495
2016-07-13T10:48:07.221Z,2050
2016-07-13T10:49:07.214Z,2145
2016-07-13T10:50:07.188Z,2490
2016-07-13T10:51:07.183Z,2050
2016-07-13T10:52:07.173Z,2440
2016-07-13T10:53:07.159Z,1885
2016-07-13T10:54:07.148Z,2185
2016-07-13T10:55:07.137Z,3175
2016-07-13T10:56:07.139Z,2320
2016-07-13T10:57:07.115Z,2715
2016-07-13T10:58:07.106Z,3475
2016-07-13T10:59:07.109Z,3520
2016-07-13T11:00:07.101Z,3455
2016-07-13T11:01:07.080Z,3365
2016-07-13T11:02:07.077Z,2845
2016-07-13T11:03:07.257Z,2695
2016-07-13T11:04:07.064Z,1840
2016-07-13T11:05:07.052Z,1720
2016-07-13T11:06:07.048Z,1510
2016-07-13T11:07:07.033Z,1810
2016-07-13T11:08:07.033Z,2055
2016-07-13T11:09:07.024Z,2010
2016-07-13T11:10:07.014Z,2395
2016-07-13T11:11:07.016Z,2415
2016-07-13T11:12:07.005Z,2050
2016-07-13T11:13:07.070Z,1815
2016-07-13T11:14:06.991Z,2205
2016-07-13T11:15:06.980Z,2035
2016-07-13T11:16:06.977Z,2580
2016-07-13T11:17:06.967Z,2520
2016-07-13T11:18:06.954Z,2315
2016-07-13T11:19:06.950Z,2725
2016-07-13T11:20:06.936Z,2485
2016-07-13T11:21:06.935Z,2670
2016-07-13T11:22:06.923Z,2675
2016-07-13T11:23:06.914Z,1975
2016-07-13T11:24:06.927Z,1945
2016-07-13T11:25:06.905Z,2025
2016-07-13T11:26:06.894Z,1790
2016-07-13T11:27:06.896Z,1755
2016-07-13T11:28:06.881Z,1970
2016-07-13T11:29:06.867Z,2145
2016-07-13T11:30:06.871Z,2120
2016-07-13T11:31:06.857Z,2060
2016-07-13T11:32:06.845Z,2220
2016-07-13T11:33:06.838Z,2150
2016-07-13T11:34:06.834Z,2005
2016-07-13T11:35:06.823Z,1970
2016-07-13T11:36:06.821Z,1905
2016-07-13T11:37:06.816Z,1900
2016-07-13T11:38:06.794Z,1920
2016-07-13T11:39:06.791Z,1935
2016-07-13T11:40:06.782Z,2050
2016-07-13T11:41:06.771Z,2230
2016-07-13T11:42:06.759Z,2285
2016-07-13T11:43:06.755Z,2325
2016-07-13T11:44:06.756Z,2285
2016-07-13T11:45:06.752Z,2190
2016-07-13T11:46:06.729Z,2015
2016-07-13T11:47:06.723Z,2005
2016-07-13T11:48:06.716Z,1990
2016-07-13T11:49:06.706Z,1915
2016-07-13T11:50:06.696Z,1805
2016-07-13T11:51:06.702Z,1970
2016-07-13T11:52:06.679Z,2135
2016-07-13T11:53:06.665Z,2215
2016-07-13T11:54:06.661Z,2280
2016-07-13T11:55:06.665Z,1890
2016-07-13T11:56:06.647Z,2105
2016-07-13T11:57:06.636Z,2165
2016-07-13T11:58:07.328Z,2215
2016-07-13T11:59:06.619Z,2170
2016-07-13T12:00:06.607Z,2135
2016-07-13T12:01:06.602Z,2055
2016-07-13T12:02:06.595Z,1635
2016-07-13T12:03:06.602Z,1565
2016-07-13T12:04:06.575Z,1760
2016-07-13T12:05:06.564Z,1675
2016-07-13T12:06:06.559Z,1630
2016-07-13T12:07:06.549Z,1600
2016-07-13T12:08:06.537Z,1490
2016-07-13T12:09:06.532Z,1395
2016-07-13T12:10:06.521Z,1585
2016-07-13T12:11:06.509Z,1590
2016-07-13T12:12:07.194Z,1720
2016-07-13T12:13:06.499Z,1400
2016-07-13T12:14:06.483Z,1305
2016-07-13T12:15:06.469Z,1295
2016-07-13T12:16:06.465Z,1500
2016-07-13T12:17:06.452Z,1370
2016-07-13T12:18:06.441Z,1345
2016-07-13T12:19:06.432Z,1305
2016-07-13T12:20:06.540Z,1260
2016-07-13T12:21:06.406Z,1300
2016-07-13T12:22:06.401Z,1340
2016-07-13T12:23:07.334Z,1380
2016-07-13T12:24:06.379Z,1420
2016-07-13T12:25:06.371Z,1435
2016-07-13T12:26:06.389Z,1415
2016-07-13T12:27:06.343Z,1385
2016-07-13T12:28:07.034Z,1345
2016-07-13T12:29:06.334Z,1305
2016-07-13T12:30:08.817Z,1280
2016-07-13T12:31:06.302Z,1280
2016-07-13T12:32:06.289Z,1290
2016-07-13T12:33:06.278Z,1315
2016-07-13T12:34:06.265Z,1335
2016-07-13T12:35:06.255Z,1345
2016-07-13T12:36:06.244Z,1345
2016-07-13T12:37:06.231Z,1335
2016-07-13T12:38:06.927Z,1315
2016-07-13T12:39:06.210Z,1300
2016-07-13T12:40:06.199Z,1275
2016-07-13T12:41:08.323Z,1240
2016-07-13T12:42:06.167Z,1205
2016-07-13T12:43:06.169Z,1170
2016-07-13T12:44:06.146Z,1130
2016-07-13T12:45:06.833Z,1100
2016-07-13T12:46:06.120Z,1080
2016-07-13T12:47:06.109Z,1070
2016-07-13T12:48:06.098Z,1050
2016-07-13T12:49:06.084Z,1045
2016-07-13T12:50:06.766Z,1065
2016-07-13T12:51:06.060Z,1090
2016-07-13T12:52:06.045Z,1100
2016-07-13T12:53:06.034Z,1100
2016-07-13T12:54:06.025Z,1095
2016-07-13T12:55:06.001Z,1080
2016-07-13T12:56:05.993Z,1065
2016-07-13T12:57:06.000Z,1055
2016-07-13T12:58:05.964Z,1040
2016-07-13T12:59:05.964Z,1030
2016-07-13T13:00:05.981Z,1025
2016-07-13T13:01:05.952Z,1020
2016-07-13T13:02:06.020Z,1030
2016-07-13T13:03:05.921Z,1045
2016-07-13T13:04:05.908Z,1065
2016-07-13T13:05:05.904Z,1075
2016-07-13T13:06:05.875Z,1090
2016-07-13T13:07:05.859Z,1105
2016-07-13T13:08:05.839Z,1115
2016-07-13T13:09:05.994Z,1120
2016-07-13T13:10:05.812Z,1130
2016-07-13T13:11:05.825Z,1155
2016-07-13T13:12:05.792Z,1215
2016-07-13T13:13:05.781Z,1290
2016-07-13T13:14:05.768Z,1335
2016-07-13T13:15:05.744Z,1335
2016-07-13T13:16:05.730Z,1360
2016-07-13T13:17:05.720Z,1370
2016-07-13T13:18:05.705Z,1365
2016-07-13T13:19:05.691Z,1365
2016-07-13T13:20:05.681Z,1355
2016-07-13T13:21:05.682Z,1335
2016-07-13T13:22:05.653Z,1300
2016-07-13T13:23:05.644Z,1285
2016-07-13T13:24:05.627Z,1255
2016-07-13T13:25:05.617Z,1240
2016-07-13T13:26:05.603Z,1225
2016-07-13T13:27:05.586Z,1210
2016-07-13T13:28:05.579Z,1205
2016-07-13T13:29:05.567Z,1235
2016-07-13T13:30:05.559Z,1215
2016-07-13T13:31:05.538Z,1210
2016-07-13T13:32:05.527Z,1195
2016-07-13T13:33:05.728Z,1185
2016-07-13T13:34:05.511Z,1175
2016-07-13T13:35:05.485Z,1175
2016-07-13T13:36:05.476Z,1175
2016-07-13T13:37:05.455Z,1180
2016-07-13T13:38:05.449Z,1195
2016-07-13T13:39:05.435Z,1225
2016-07-13T13:40:05.427Z,1250
2016-07-13T13:41:05.405Z,1275
2016-07-13T13:42:05.395Z,1285
2016-07-13T13:43:05.392Z,1310
2016-07-13T13:44:05.370Z,1320
2016-07-13T13:45:05.351Z,1330
2016-07-13T13:46:05.344Z,1345